sensor_id;sensor_type;location;lat;lon;timestamp;P1;durP1;ratioP1;P2;durP2;ratioP2
73557;SDS011;61829;53.286;10.434;2023-07-22T00:02:23;5.50;;;3.13;;
73557;SDS011;61829;53.286;10.434;2023-07-22T00:04:49;4.93;;;2.72;;
73557;SDS011;61829;53.286;10.434;2023-07-22T00:07:15;4.05;;;2.47;;
73557;SDS011;61829;53.286;10.434;2023-07-22T00:09:43;6.10;;;2.80;;
73557;SDS011;61829;53.286;10.434;2023-07-22T00:12:09;4.45;;;2.90;;
73557;SDS011;61829;53.286;10.434;2023-07-22T00:14:38;6.57;;;3.05;;
73557;SDS011;61829;53.286;10.434;2023-07-22T00:17:05;4.88;;;2.63;;
73557;SDS011;61829;53.286;10.434;2023-07-22T00:19:32;5.43;;;2.85;;
73557;SDS011;61829;53.286;10.434;2023-07-22T00:22:13;6.07;;;3.20;;
73557;SDS011;61829;53.286;10.434;2023-07-22T00:24:41;4.75;;;3.10;;
73557;SDS011;61829;53.286;10.434;2023-07-22T00:27:06;6.55;;;3.58;;
73557;SDS011;61829;53.286;10.434;2023-07-22T00:29:34;7.85;;;3.78;;
73557;SDS011;61829;53.286;10.434;2023-07-22T00:32:00;7.07;;;3.55;;
73557;SDS011;61829;53.286;10.434;2023-07-22T00:34:26;6.35;;;3.28;;
73557;SDS011;61829;53.286;10.434;2023-07-22T00:36:52;5.72;;;3.45;;
73557;SDS011;61829;53.286;10.434;2023-07-22T00:39:18;6.05;;;3.38;;
73557;SDS011;61829;53.286;10.434;2023-07-22T00:41:45;5.70;;;2.97;;
73557;SDS011;61829;53.286;10.434;2023-07-22T00:44:12;7.30;;;3.45;;
73557;SDS011;61829;53.286;10.434;2023-07-22T00:46:38;7.80;;;4.43;;
73557;SDS011;61829;53.286;10.434;2023-07-22T00:49:07;6.40;;;4.38;;
73557;SDS011;61829;53.286;10.434;2023-07-22T00:51:34;8.63;;;4.30;;
73557;SDS011;61829;53.286;10.434;2023-07-22T00:54:03;6.47;;;4.05;;
73557;SDS011;61829;53.286;10.434;2023-07-22T00:56:31;7.70;;;4.28;;
73557;SDS011;61829;53.286;10.434;2023-07-22T00:59:01;7.88;;;4.45;;
73557;SDS011;61829;53.286;10.434;2023-07-22T01:01:27;8.48;;;4.93;;
73557;SDS011;61829;53.286;10.434;2023-07-22T01:03:53;11.57;;;4.78;;
73557;SDS011;61829;53.286;10.434;2023-07-22T01:06:19;8.85;;;4.22;;
73557;SDS011;61829;53.286;10.434;2023-07-22T01:08:46;7.00;;;4.22;;
73557;SDS011;61829;53.286;10.434;2023-07-22T01:11:14;8.57;;;4.57;;
73557;SDS011;61829;53.286;10.434;2023-07-22T01:13:41;7.50;;;4.43;;
73557;SDS011;61829;53.286;10.434;2023-07-22T01:16:06;7.82;;;4.15;;
73557;SDS011;61829;53.286;10.434;2023-07-22T01:18:33;9.88;;;4.10;;
73557;SDS011;61829;53.286;10.434;2023-07-22T01:20:59;6.03;;;3.97;;
73557;SDS011;61829;53.286;10.434;2023-07-22T01:23:28;9.48;;;4.45;;
73557;SDS011;61829;53.286;10.434;2023-07-22T01:25:54;8.27;;;4.38;;
73557;SDS011;61829;53.286;10.434;2023-07-22T01:28:21;8.90;;;4.63;;
73557;SDS011;61829;53.286;10.434;2023-07-22T01:30:47;7.85;;;4.20;;
73557;SDS011;61829;53.286;10.434;2023-07-22T01:33:14;7.35;;;4.32;;
73557;SDS011;61829;53.286;10.434;2023-07-22T01:35:40;7.22;;;4.43;;
73557;SDS011;61829;53.286;10.434;2023-07-22T01:38:06;6.38;;;4.50;;
73557;SDS011;61829;53.286;10.434;2023-07-22T01:40:33;8.68;;;4.75;;
73557;SDS011;61829;53.286;10.434;2023-07-22T01:42:59;11.23;;;4.90;;
73557;SDS011;61829;53.286;10.434;2023-07-22T01:45:25;8.68;;;5.20;;
73557;SDS011;61829;53.286;10.434;2023-07-22T01:47:51;9.30;;;5.00;;
73557;SDS011;61829;53.286;10.434;2023-07-22T01:50:17;9.52;;;5.10;;
73557;SDS011;61829;53.286;10.434;2023-07-22T01:52:44;11.18;;;5.55;;
73557;SDS011;61829;53.286;10.434;2023-07-22T01:55:11;8.77;;;4.45;;
73557;SDS011;61829;53.286;10.434;2023-07-22T01:57:38;8.75;;;4.90;;
73557;SDS011;61829;53.286;10.434;2023-07-22T02:00:05;11.98;;;5.43;;
73557;SDS011;61829;53.286;10.434;2023-07-22T02:02:33;9.10;;;5.40;;
73557;SDS011;61829;53.286;10.434;2023-07-22T02:05:00;8.55;;;5.30;;
73557;SDS011;61829;53.286;10.434;2023-07-22T02:07:26;10.60;;;5.57;;
73557;SDS011;61829;53.286;10.434;2023-07-22T02:09:52;10.38;;;5.40;;
73557;SDS011;61829;53.286;10.434;2023-07-22T02:12:18;11.73;;;5.32;;
73557;SDS011;61829;53.286;10.434;2023-07-22T02:14:43;9.13;;;5.28;;
73557;SDS011;61829;53.286;10.434;2023-07-22T02:17:09;9.45;;;5.43;;
73557;SDS011;61829;53.286;10.434;2023-07-22T02:19:35;13.82;;;5.75;;
73557;SDS011;61829;53.286;10.434;2023-07-22T02:22:03;11.90;;;5.10;;
73557;SDS011;61829;53.286;10.434;2023-07-22T02:24:30;11.75;;;5.47;;
73557;SDS011;61829;53.286;10.434;2023-07-22T02:26:57;10.20;;;5.38;;
73557;SDS011;61829;53.286;10.434;2023-07-22T02:29:23;11.68;;;5.40;;
73557;SDS011;61829;53.286;10.434;2023-07-22T02:31:49;9.68;;;5.38;;
73557;SDS011;61829;53.286;10.434;2023-07-22T02:34:15;12.85;;;5.43;;
73557;SDS011;61829;53.286;10.434;2023-07-22T02:36:42;10.77;;;5.60;;
73557;SDS011;61829;53.286;10.434;2023-07-22T02:39:08;10.73;;;5.10;;
73557;SDS011;61829;53.286;10.434;2023-07-22T02:41:37;10.30;;;5.25;;
73557;SDS011;61829;53.286;10.434;2023-07-22T02:44:03;11.23;;;5.15;;
73557;SDS011;61829;53.286;10.434;2023-07-22T02:46:29;10.35;;;5.05;;
73557;SDS011;61829;53.286;10.434;2023-07-22T02:48:55;10.93;;;5.78;;
73557;SDS011;61829;53.286;10.434;2023-07-22T02:51:21;11.68;;;5.70;;
73557;SDS011;61829;53.286;10.434;2023-07-22T02:53:46;10.23;;;5.53;;
73557;SDS011;61829;53.286;10.434;2023-07-22T02:56:12;11.35;;;5.45;;
73557;SDS011;61829;53.286;10.434;2023-07-22T02:58:43;14.35;;;6.18;;
73557;SDS011;61829;53.286;10.434;2023-07-22T03:01:09;11.73;;;6.10;;
73557;SDS011;61829;53.286;10.434;2023-07-22T03:03:35;11.95;;;5.40;;
73557;SDS011;61829;53.286;10.434;2023-07-22T03:06:02;9.82;;;5.50;;
73557;SDS011;61829;53.286;10.434;2023-07-22T03:08:29;11.85;;;6.00;;
73557;SDS011;61829;53.286;10.434;2023-07-22T03:10:55;10.95;;;5.78;;
73557;SDS011;61829;53.286;10.434;2023-07-22T03:13:21;11.15;;;5.45;;
73557;SDS011;61829;53.286;10.434;2023-07-22T03:15:47;11.38;;;5.75;;
73557;SDS011;61829;53.286;10.434;2023-07-22T03:18:12;10.00;;;5.40;;
73557;SDS011;61829;53.286;10.434;2023-07-22T03:20:39;11.93;;;5.97;;
73557;SDS011;61829;53.286;10.434;2023-07-22T03:23:05;13.88;;;6.70;;
73557;SDS011;61829;53.286;10.434;2023-07-22T03:25:32;16.05;;;6.43;;
73557;SDS011;61829;53.286;10.434;2023-07-22T03:30:29;14.43;;;5.70;;
73557;SDS011;61829;53.286;10.434;2023-07-22T03:32:55;13.27;;;6.80;;
73557;SDS011;61829;53.286;10.434;2023-07-22T03:35:23;12.73;;;6.03;;
73557;SDS011;61829;53.286;10.434;2023-07-22T03:37:49;14.70;;;6.20;;
73557;SDS011;61829;53.286;10.434;2023-07-22T03:40:15;13.73;;;5.75;;
73557;SDS011;61829;53.286;10.434;2023-07-22T03:45:41;12.65;;;6.07;;
73557;SDS011;61829;53.286;10.434;2023-07-22T03:50:34;10.70;;;5.97;;
73557;SDS011;61829;53.286;10.434;2023-07-22T03:53:01;11.65;;;5.93;;
73557;SDS011;61829;53.286;10.434;2023-07-22T03:55:27;17.80;;;7.15;;
73557;SDS011;61829;53.286;10.434;2023-07-22T03:57:52;15.68;;;6.25;;
73557;SDS011;61829;53.286;10.434;2023-07-22T04:00:20;11.35;;;5.75;;
73557;SDS011;61829;53.286;10.434;2023-07-22T04:02:46;13.50;;;6.85;;
73557;SDS011;61829;53.286;10.434;2023-07-22T04:05:12;18.52;;;6.43;;
73557;SDS011;61829;53.286;10.434;2023-07-22T04:11:38;17.10;;;6.20;;
73557;SDS011;61829;53.286;10.434;2023-07-22T04:14:04;15.07;;;6.43;;
73557;SDS011;61829;53.286;10.434;2023-07-22T04:16:29;13.48;;;6.35;;
73557;SDS011;61829;53.286;10.434;2023-07-22T04:18:55;12.18;;;6.07;;
73557;SDS011;61829;53.286;10.434;2023-07-22T04:21:21;13.85;;;6.05;;
73557;SDS011;61829;53.286;10.434;2023-07-22T04:23:47;11.18;;;6.43;;
73557;SDS011;61829;53.286;10.434;2023-07-22T04:26:14;12.73;;;5.70;;
73557;SDS011;61829;53.286;10.434;2023-07-22T04:28:40;10.45;;;5.30;;
73557;SDS011;61829;53.286;10.434;2023-07-22T04:31:06;13.65;;;5.50;;
73557;SDS011;61829;53.286;10.434;2023-07-22T04:33:32;9.80;;;5.35;;
73557;SDS011;61829;53.286;10.434;2023-07-22T04:35:58;11.73;;;5.43;;
73557;SDS011;61829;53.286;10.434;2023-07-22T04:40:50;13.05;;;5.07;;
73557;SDS011;61829;53.286;10.434;2023-07-22T04:43:17;11.70;;;5.35;;
73557;SDS011;61829;53.286;10.434;2023-07-22T04:45:46;11.93;;;5.72;;
73557;SDS011;61829;53.286;10.434;2023-07-22T04:51:40;9.68;;;5.00;;
73557;SDS011;61829;53.286;10.434;2023-07-22T04:54:06;9.27;;;5.75;;
73557;SDS011;61829;53.286;10.434;2023-07-22T04:56:32;10.77;;;5.47;;
73557;SDS011;61829;53.286;10.434;2023-07-22T04:58:58;10.40;;;5.45;;
73557;SDS011;61829;53.286;10.434;2023-07-22T05:01:23;12.68;;;5.47;;
73557;SDS011;61829;53.286;10.434;2023-07-22T05:03:49;10.15;;;5.25;;
73557;SDS011;61829;53.286;10.434;2023-07-22T05:10:15;13.10;;;5.95;;
73557;SDS011;61829;53.286;10.434;2023-07-22T05:12:41;8.55;;;4.90;;
73557;SDS011;61829;53.286;10.434;2023-07-22T05:15:09;10.38;;;5.18;;
73557;SDS011;61829;53.286;10.434;2023-07-22T05:17:36;10.60;;;5.60;;
73557;SDS011;61829;53.286;10.434;2023-07-22T05:20:03;12.48;;;5.32;;
73557;SDS011;61829;53.286;10.434;2023-07-22T05:22:32;12.18;;;5.40;;
73557;SDS011;61829;53.286;10.434;2023-07-22T05:24:58;10.07;;;5.05;;
73557;SDS011;61829;53.286;10.434;2023-07-22T05:27:24;9.30;;;5.65;;
73557;SDS011;61829;53.286;10.434;2023-07-22T05:29:50;13.18;;;5.50;;
73557;SDS011;61829;53.286;10.434;2023-07-22T05:32:16;9.70;;;5.30;;
73557;SDS011;61829;53.286;10.434;2023-07-22T05:34:42;14.02;;;4.82;;
73557;SDS011;61829;53.286;10.434;2023-07-22T05:37:08;11.30;;;5.80;;
73557;SDS011;61829;53.286;10.434;2023-07-22T05:39:34;10.20;;;5.82;;
73557;SDS011;61829;53.286;10.434;2023-07-22T05:42:00;13.32;;;5.30;;
73557;SDS011;61829;53.286;10.434;2023-07-22T05:44:25;9.90;;;5.22;;
73557;SDS011;61829;53.286;10.434;2023-07-22T05:46:51;12.55;;;5.60;;
73557;SDS011;61829;53.286;10.434;2023-07-22T05:49:17;10.25;;;5.38;;
73557;SDS011;61829;53.286;10.434;2023-07-22T05:51:43;10.40;;;5.22;;
73557;SDS011;61829;53.286;10.434;2023-07-22T05:54:09;9.75;;;4.55;;
73557;SDS011;61829;53.286;10.434;2023-07-22T05:56:35;10.65;;;5.10;;
73557;SDS011;61829;53.286;10.434;2023-07-22T05:59:00;10.25;;;5.00;;
73557;SDS011;61829;53.286;10.434;2023-07-22T06:01:26;8.63;;;4.57;;
73557;SDS011;61829;53.286;10.434;2023-07-22T06:03:52;8.98;;;4.93;;
73557;SDS011;61829;53.286;10.434;2023-07-22T06:06:18;7.28;;;4.10;;
73557;SDS011;61829;53.286;10.434;2023-07-22T06:11:47;6.32;;;4.13;;
73557;SDS011;61829;53.286;10.434;2023-07-22T06:14:13;8.98;;;3.90;;
73557;SDS011;61829;53.286;10.434;2023-07-22T06:16:39;7.00;;;4.03;;
73557;SDS011;61829;53.286;10.434;2023-07-22T06:19:05;5.80;;;3.67;;
73557;SDS011;61829;53.286;10.434;2023-07-22T06:21:31;8.15;;;4.38;;
73557;SDS011;61829;53.286;10.434;2023-07-22T06:23:56;7.07;;;4.10;;
73557;SDS011;61829;53.286;10.434;2023-07-22T06:26:22;7.88;;;3.80;;
73557;SDS011;61829;53.286;10.434;2023-07-22T06:28:48;9.95;;;3.88;;
73557;SDS011;61829;53.286;10.434;2023-07-22T06:31:14;6.32;;;3.50;;
73557;SDS011;61829;53.286;10.434;2023-07-22T06:33:39;7.60;;;3.72;;
73557;SDS011;61829;53.286;10.434;2023-07-22T06:36:05;8.02;;;3.40;;
73557;SDS011;61829;53.286;10.434;2023-07-22T06:38:34;7.93;;;3.65;;
73557;SDS011;61829;53.286;10.434;2023-07-22T06:41:00;6.20;;;3.28;;
73557;SDS011;61829;53.286;10.434;2023-07-22T06:43:26;5.47;;;3.05;;
73557;SDS011;61829;53.286;10.434;2023-07-22T06:45:53;7.03;;;3.35;;
73557;SDS011;61829;53.286;10.434;2023-07-22T06:48:18;8.52;;;3.42;;
73557;SDS011;61829;53.286;10.434;2023-07-22T06:50:48;5.28;;;3.15;;
73557;SDS011;61829;53.286;10.434;2023-07-22T06:53:14;4.97;;;3.05;;
73557;SDS011;61829;53.286;10.434;2023-07-22T06:55:47;6.93;;;3.20;;
73557;SDS011;61829;53.286;10.434;2023-07-22T06:58:14;8.40;;;3.63;;
73557;SDS011;61829;53.286;10.434;2023-07-22T07:00:40;5.60;;;2.63;;
73557;SDS011;61829;53.286;10.434;2023-07-22T07:03:05;5.45;;;2.90;;
73557;SDS011;61829;53.286;10.434;2023-07-22T07:05:31;7.38;;;3.33;;
73557;SDS011;61829;53.286;10.434;2023-07-22T07:07:57;5.80;;;3.10;;
73557;SDS011;61829;53.286;10.434;2023-07-22T07:10:23;4.97;;;3.10;;
73557;SDS011;61829;53.286;10.434;2023-07-22T07:12:50;5.40;;;2.67;;
73557;SDS011;61829;53.286;10.434;2023-07-22T07:15:16;7.05;;;3.10;;
73557;SDS011;61829;53.286;10.434;2023-07-22T07:17:42;6.90;;;2.80;;
73557;SDS011;61829;53.286;10.434;2023-07-22T07:20:08;5.13;;;2.78;;
73557;SDS011;61829;53.286;10.434;2023-07-22T07:22:35;6.35;;;2.80;;
73557;SDS011;61829;53.286;10.434;2023-07-22T07:25:01;3.80;;;2.28;;
73557;SDS011;61829;53.286;10.434;2023-07-22T07:27:27;5.13;;;2.40;;
73557;SDS011;61829;53.286;10.434;2023-07-22T07:29:53;4.88;;;2.22;;
73557;SDS011;61829;53.286;10.434;2023-07-22T07:32:19;4.43;;;2.42;;
73557;SDS011;61829;53.286;10.434;2023-07-22T07:34:45;6.43;;;2.40;;
73557;SDS011;61829;53.286;10.434;2023-07-22T07:37:11;4.38;;;2.03;;
73557;SDS011;61829;53.286;10.434;2023-07-22T07:39:37;4.68;;;1.92;;
73557;SDS011;61829;53.286;10.434;2023-07-22T07:42:02;4.78;;;2.30;;
73557;SDS011;61829;53.286;10.434;2023-07-22T07:44:29;5.75;;;2.58;;
73557;SDS011;61829;53.286;10.434;2023-07-22T07:46:54;5.25;;;2.47;;
73557;SDS011;61829;53.286;10.434;2023-07-22T07:49:20;3.70;;;2.30;;
73557;SDS011;61829;53.286;10.434;2023-07-22T07:51:47;5.13;;;2.47;;
73557;SDS011;61829;53.286;10.434;2023-07-22T07:54:14;3.45;;;1.98;;
73557;SDS011;61829;53.286;10.434;2023-07-22T07:56:40;4.90;;;2.00;;
73557;SDS011;61829;53.286;10.434;2023-07-22T07:59:06;3.25;;;1.88;;
73557;SDS011;61829;53.286;10.434;2023-07-22T08:01:34;4.25;;;1.70;;
73557;SDS011;61829;53.286;10.434;2023-07-22T08:04:01;3.97;;;1.77;;
73557;SDS011;61829;53.286;10.434;2023-07-22T08:06:26;2.92;;;1.52;;
73557;SDS011;61829;53.286;10.434;2023-07-22T08:08:52;6.38;;;1.90;;
73557;SDS011;61829;53.286;10.434;2023-07-22T08:11:18;5.43;;;1.60;;
73557;SDS011;61829;53.286;10.434;2023-07-22T08:13:44;2.95;;;1.20;;
73557;SDS011;61829;53.286;10.434;2023-07-22T08:16:11;2.85;;;1.35;;
73557;SDS011;61829;53.286;10.434;2023-07-22T08:18:38;5.43;;;1.90;;
73557;SDS011;61829;53.286;10.434;2023-07-22T08:21:05;5.55;;;1.70;;
73557;SDS011;61829;53.286;10.434;2023-07-22T08:23:35;4.60;;;1.70;;
73557;SDS011;61829;53.286;10.434;2023-07-22T08:26:02;4.03;;;1.75;;
73557;SDS011;61829;53.286;10.434;2023-07-22T08:28:31;3.92;;;1.65;;
73557;SDS011;61829;53.286;10.434;2023-07-22T08:30:57;4.53;;;1.88;;
73557;SDS011;61829;53.286;10.434;2023-07-22T08:33:25;7.55;;;1.80;;
73557;SDS011;61829;53.286;10.434;2023-07-22T08:35:51;3.75;;;1.73;;
73557;SDS011;61829;53.286;10.434;2023-07-22T08:38:17;2.53;;;1.30;;
73557;SDS011;61829;53.286;10.434;2023-07-22T08:40:43;3.75;;;1.35;;
73557;SDS011;61829;53.286;10.434;2023-07-22T08:43:10;5.32;;;1.52;;
73557;SDS011;61829;53.286;10.434;2023-07-22T08:45:37;3.63;;;1.65;;
73557;SDS011;61829;53.286;10.434;2023-07-22T08:48:05;4.30;;;1.85;;
73557;SDS011;61829;53.286;10.434;2023-07-22T08:50:41;3.92;;;1.70;;
73557;SDS011;61829;53.286;10.434;2023-07-22T08:53:12;3.38;;;1.50;;
73557;SDS011;61829;53.286;10.434;2023-07-22T08:55:38;4.13;;;1.38;;
73557;SDS011;61829;53.286;10.434;2023-07-22T08:58:08;3.03;;;1.50;;
73557;SDS011;61829;53.286;10.434;2023-07-22T09:00:35;4.18;;;1.50;;
73557;SDS011;61829;53.286;10.434;2023-07-22T09:03:02;4.45;;;1.70;;
73557;SDS011;61829;53.286;10.434;2023-07-22T09:05:33;3.60;;;1.38;;
73557;SDS011;61829;53.286;10.434;2023-07-22T09:08:03;4.75;;;1.33;;
73557;SDS011;61829;53.286;10.434;2023-07-22T09:10:30;3.53;;;1.50;;
73557;SDS011;61829;53.286;10.434;2023-07-22T09:12:57;5.05;;;1.60;;
73557;SDS011;61829;53.286;10.434;2023-07-22T09:15:24;2.47;;;1.40;;
73557;SDS011;61829;53.286;10.434;2023-07-22T09:17:51;4.72;;;1.27;;
73557;SDS011;61829;53.286;10.434;2023-07-22T09:20:16;4.45;;;1.50;;
73557;SDS011;61829;53.286;10.434;2023-07-22T09:22:47;2.28;;;1.20;;
73557;SDS011;61829;53.286;10.434;2023-07-22T09:27:44;2.65;;;1.40;;
73557;SDS011;61829;53.286;10.434;2023-07-22T09:30:21;3.20;;;1.17;;
73557;SDS011;61829;53.286;10.434;2023-07-22T09:32:57;2.90;;;1.23;;
73557;SDS011;61829;53.286;10.434;2023-07-22T09:35:25;3.00;;;1.20;;
73557;SDS011;61829;53.286;10.434;2023-07-22T09:37:53;2.90;;;1.33;;
73557;SDS011;61829;53.286;10.434;2023-07-22T09:40:20;3.92;;;1.30;;
73557;SDS011;61829;53.286;10.434;2023-07-22T09:42:49;3.70;;;1.23;;
73557;SDS011;61829;53.286;10.434;2023-07-22T09:45:17;4.45;;;1.20;;
73557;SDS011;61829;53.286;10.434;2023-07-22T09:47:45;1.85;;;1.10;;
73557;SDS011;61829;53.286;10.434;2023-07-22T09:50:16;3.25;;;1.33;;
73557;SDS011;61829;53.286;10.434;2023-07-22T09:52:48;2.30;;;1.20;;
73557;SDS011;61829;53.286;10.434;2023-07-22T09:55:16;1.98;;;1.23;;
73557;SDS011;61829;53.286;10.434;2023-07-22T09:57:45;2.58;;;1.10;;
73557;SDS011;61829;53.286;10.434;2023-07-22T10:00:16;2.40;;;1.23;;
73557;SDS011;61829;53.286;10.434;2023-07-22T10:02:45;3.53;;;1.33;;
73557;SDS011;61829;53.286;10.434;2023-07-22T10:05:15;2.83;;;1.40;;
73557;SDS011;61829;53.286;10.434;2023-07-22T10:07:43;3.45;;;1.40;;
73557;SDS011;61829;53.286;10.434;2023-07-22T10:10:14;3.13;;;1.58;;
73557;SDS011;61829;53.286;10.434;2023-07-22T10:12:42;4.70;;;1.50;;
73557;SDS011;61829;53.286;10.434;2023-07-22T10:15:15;2.42;;;1.05;;
73557;SDS011;61829;53.286;10.434;2023-07-22T10:17:43;2.92;;;1.20;;
73557;SDS011;61829;53.286;10.434;2023-07-22T10:20:12;3.50;;;1.25;;
73557;SDS011;61829;53.286;10.434;2023-07-22T10:25:11;2.90;;;1.10;;
73557;SDS011;61829;53.286;10.434;2023-07-22T10:27:40;2.88;;;1.13;;
73557;SDS011;61829;53.286;10.434;2023-07-22T10:30:07;2.70;;;1.13;;
73557;SDS011;61829;53.286;10.434;2023-07-22T10:32:38;3.13;;;1.27;;
73557;SDS011;61829;53.286;10.434;2023-07-22T10:35:12;2.33;;;1.10;;
73557;SDS011;61829;53.286;10.434;2023-07-22T10:37:47;2.95;;;1.30;;
73557;SDS011;61829;53.286;10.434;2023-07-22T10:45:29;3.40;;;1.48;;
73557;SDS011;61829;53.286;10.434;2023-07-22T10:48:00;3.88;;;1.42;;
73557;SDS011;61829;53.286;10.434;2023-07-22T10:53:37;2.78;;;1.55;;
73557;SDS011;61829;53.286;10.434;2023-07-22T11:04:03;3.67;;;1.90;;
73557;SDS011;61829;53.286;10.434;2023-07-22T11:06:29;4.32;;;1.80;;
73557;SDS011;61829;53.286;10.434;2023-07-22T11:08:55;4.10;;;1.70;;
73557;SDS011;61829;53.286;10.434;2023-07-22T11:11:21;3.35;;;1.63;;
73557;SDS011;61829;53.286;10.434;2023-07-22T11:14:12;3.70;;;2.00;;
73557;SDS011;61829;53.286;10.434;2023-07-22T11:16:42;2.97;;;1.70;;
73557;SDS011;61829;53.286;10.434;2023-07-22T11:19:10;6.50;;;2.05;;
73557;SDS011;61829;53.286;10.434;2023-07-22T11:21:36;3.13;;;1.50;;
73557;SDS011;61829;53.286;10.434;2023-07-22T11:24:05;3.88;;;1.80;;
73557;SDS011;61829;53.286;10.434;2023-07-22T11:26:35;4.15;;;2.00;;
73557;SDS011;61829;53.286;10.434;2023-07-22T11:29:03;5.95;;;2.25;;
73557;SDS011;61829;53.286;10.434;2023-07-22T11:31:30;4.30;;;2.10;;
73557;SDS011;61829;53.286;10.434;2023-07-22T11:33:59;4.63;;;2.58;;
73557;SDS011;61829;53.286;10.434;2023-07-22T11:36:26;3.45;;;1.92;;
73557;SDS011;61829;53.286;10.434;2023-07-22T11:38:52;5.07;;;2.33;;
73557;SDS011;61829;53.286;10.434;2023-07-22T11:45:19;4.47;;;2.08;;
73557;SDS011;61829;53.286;10.434;2023-07-22T11:47:45;3.95;;;2.25;;
73557;SDS011;61829;53.286;10.434;2023-07-22T11:50:11;5.90;;;2.70;;
73557;SDS011;61829;53.286;10.434;2023-07-22T11:52:37;4.10;;;2.40;;
73557;SDS011;61829;53.286;10.434;2023-07-22T11:55:04;4.50;;;2.30;;
73557;SDS011;61829;53.286;10.434;2023-07-22T11:57:30;5.35;;;2.20;;
73557;SDS011;61829;53.286;10.434;2023-07-22T11:59:56;5.30;;;2.53;;
73557;SDS011;61829;53.286;10.434;2023-07-22T12:02:23;4.30;;;2.92;;
73557;SDS011;61829;53.286;10.434;2023-07-22T12:09:50;5.53;;;2.45;;
73557;SDS011;61829;53.286;10.434;2023-07-22T12:12:17;4.82;;;2.58;;
73557;SDS011;61829;53.286;10.434;2023-07-22T12:14:43;5.93;;;2.80;;
73557;SDS011;61829;53.286;10.434;2023-07-22T12:17:09;4.85;;;2.70;;
73557;SDS011;61829;53.286;10.434;2023-07-22T12:19:35;6.10;;;2.97;;
73557;SDS011;61829;53.286;10.434;2023-07-22T12:22:01;4.88;;;2.63;;
73557;SDS011;61829;53.286;10.434;2023-07-22T12:24:27;4.25;;;2.50;;
73557;SDS011;61829;53.286;10.434;2023-07-22T12:26:54;5.78;;;2.63;;
73557;SDS011;61829;53.286;10.434;2023-07-22T12:29:20;5.65;;;3.05;;
73557;SDS011;61829;53.286;10.434;2023-07-22T12:31:47;4.40;;;2.90;;
73557;SDS011;61829;53.286;10.434;2023-07-22T12:34:13;4.53;;;2.75;;
73557;SDS011;61829;53.286;10.434;2023-07-22T12:36:40;6.70;;;3.30;;
73557;SDS011;61829;53.286;10.434;2023-07-22T12:39:06;6.72;;;3.10;;
73557;SDS011;61829;53.286;10.434;2023-07-22T12:41:32;5.20;;;3.15;;
73557;SDS011;61829;53.286;10.434;2023-07-22T12:43:58;5.55;;;3.25;;
73557;SDS011;61829;53.286;10.434;2023-07-22T12:46:24;5.80;;;2.75;;
73557;SDS011;61829;53.286;10.434;2023-07-22T12:48:49;5.30;;;3.20;;
73557;SDS011;61829;53.286;10.434;2023-07-22T12:51:15;10.27;;;3.30;;
73557;SDS011;61829;53.286;10.434;2023-07-22T12:53:41;6.13;;;3.30;;
73557;SDS011;61829;53.286;10.434;2023-07-22T12:56:07;6.28;;;3.30;;
73557;SDS011;61829;53.286;10.434;2023-07-22T12:58:33;8.20;;;3.50;;
73557;SDS011;61829;53.286;10.434;2023-07-22T13:00:59;4.93;;;3.00;;
73557;SDS011;61829;53.286;10.434;2023-07-22T13:03:25;5.68;;;3.17;;
73557;SDS011;61829;53.286;10.434;2023-07-22T13:05:51;5.43;;;3.15;;
73557;SDS011;61829;53.286;10.434;2023-07-22T13:08:17;5.43;;;3.20;;
73557;SDS011;61829;53.286;10.434;2023-07-22T13:10:43;4.72;;;2.97;;
73557;SDS011;61829;53.286;10.434;2023-07-22T13:13:10;6.78;;;3.15;;
73557;SDS011;61829;53.286;10.434;2023-07-22T13:15:36;5.10;;;2.90;;
73557;SDS011;61829;53.286;10.434;2023-07-22T13:18:02;7.05;;;3.28;;
73557;SDS011;61829;53.286;10.434;2023-07-22T13:20:29;5.30;;;3.10;;
73557;SDS011;61829;53.286;10.434;2023-07-22T13:22:55;5.00;;;3.17;;
73557;SDS011;61829;53.286;10.434;2023-07-22T13:25:21;4.43;;;2.90;;
73557;SDS011;61829;53.286;10.434;2023-07-22T13:27:47;5.40;;;3.17;;
73557;SDS011;61829;53.286;10.434;2023-07-22T13:30:13;6.90;;;3.38;;
73557;SDS011;61829;53.286;10.434;2023-07-22T13:32:39;4.28;;;2.47;;
73557;SDS011;61829;53.286;10.434;2023-07-22T13:37:31;5.07;;;2.63;;
73557;SDS011;61829;53.286;10.434;2023-07-22T13:39:57;4.68;;;2.90;;
73557;SDS011;61829;53.286;10.434;2023-07-22T13:42:23;5.57;;;2.92;;
73557;SDS011;61829;53.286;10.434;2023-07-22T13:44:50;5.28;;;2.60;;
73557;SDS011;61829;53.286;10.434;2023-07-22T13:47:15;8.02;;;3.05;;
73557;SDS011;61829;53.286;10.434;2023-07-22T13:49:44;5.38;;;2.80;;
73557;SDS011;61829;53.286;10.434;2023-07-22T13:52:10;4.53;;;2.90;;
73557;SDS011;61829;53.286;10.434;2023-07-22T13:54:36;4.55;;;2.70;;
73557;SDS011;61829;53.286;10.434;2023-07-22T13:57:02;4.32;;;2.40;;
73557;SDS011;61829;53.286;10.434;2023-07-22T13:59:28;6.32;;;2.88;;
73557;SDS011;61829;53.286;10.434;2023-07-22T14:01:53;5.72;;;2.60;;
73557;SDS011;61829;53.286;10.434;2023-07-22T14:04:19;4.70;;;2.55;;
73557;SDS011;61829;53.286;10.434;2023-07-22T14:06:45;5.97;;;2.80;;
73557;SDS011;61829;53.286;10.434;2023-07-22T14:09:11;6.68;;;2.92;;
73557;SDS011;61829;53.286;10.434;2023-07-22T14:11:37;5.47;;;2.47;;
73557;SDS011;61829;53.286;10.434;2023-07-22T14:14:03;5.00;;;2.95;;
73557;SDS011;61829;53.286;10.434;2023-07-22T14:16:28;6.65;;;2.90;;
73557;SDS011;61829;53.286;10.434;2023-07-22T14:18:54;5.35;;;2.70;;
73557;SDS011;61829;53.286;10.434;2023-07-22T14:23:47;4.70;;;2.63;;
73557;SDS011;61829;53.286;10.434;2023-07-22T14:26:13;4.00;;;2.20;;
73557;SDS011;61829;53.286;10.434;2023-07-22T14:28:39;5.53;;;2.67;;
73557;SDS011;61829;53.286;10.434;2023-07-22T14:31:04;4.25;;;2.38;;
73557;SDS011;61829;53.286;10.434;2023-07-22T14:33:30;7.10;;;2.58;;
73557;SDS011;61829;53.286;10.434;2023-07-22T14:35:56;6.47;;;2.92;;
73557;SDS011;61829;53.286;10.434;2023-07-22T14:38:22;5.22;;;2.80;;
73557;SDS011;61829;53.286;10.434;2023-07-22T14:40:48;4.20;;;2.70;;
73557;SDS011;61829;53.286;10.434;2023-07-22T14:43:14;5.65;;;2.60;;
73557;SDS011;61829;53.286;10.434;2023-07-22T14:45:40;7.50;;;3.10;;
73557;SDS011;61829;53.286;10.434;2023-07-22T14:48:06;4.97;;;3.17;;
73557;SDS011;61829;53.286;10.434;2023-07-22T14:50:32;5.03;;;2.65;;
73557;SDS011;61829;53.286;10.434;2023-07-22T14:52:58;5.53;;;2.80;;
73557;SDS011;61829;53.286;10.434;2023-07-22T14:55:24;4.63;;;2.60;;
73557;SDS011;61829;53.286;10.434;2023-07-22T14:57:50;4.47;;;2.50;;
73557;SDS011;61829;53.286;10.434;2023-07-22T15:00:16;4.38;;;2.38;;
73557;SDS011;61829;53.286;10.434;2023-07-22T15:02:43;4.28;;;2.53;;
73557;SDS011;61829;53.286;10.434;2023-07-22T15:05:09;4.63;;;2.58;;
73557;SDS011;61829;53.286;10.434;2023-07-22T15:07:35;8.55;;;2.78;;
73557;SDS011;61829;53.286;10.434;2023-07-22T15:10:01;5.18;;;2.72;;
73557;SDS011;61829;53.286;10.434;2023-07-22T15:12:28;5.10;;;2.38;;
73557;SDS011;61829;53.286;10.434;2023-07-22T15:14:54;4.80;;;2.90;;
73557;SDS011;61829;53.286;10.434;2023-07-22T15:17:20;4.03;;;2.65;;
73557;SDS011;61829;53.286;10.434;2023-07-22T15:19:46;5.93;;;3.75;;
73557;SDS011;61829;53.286;10.434;2023-07-22T15:22:12;4.63;;;2.72;;
73557;SDS011;61829;53.286;10.434;2023-07-22T15:24:37;5.10;;;2.85;;
73557;SDS011;61829;53.286;10.434;2023-07-22T15:27:03;4.88;;;2.90;;
73557;SDS011;61829;53.286;10.434;2023-07-22T15:29:29;5.20;;;2.90;;